Time;durP1;ratioP1;P1;durP2;ratioP2;P2;SDS_P1;SDS_P2;PMS_P1;PMS_P2;Temp;Humidity;BMP_temperature;BMP_pressure;BME280_temperature;BME280_humidity;BME280_pressure;Samples;Min_cycle;Max_cycle;Signal;HPM_P1;HPM_P2
2021/08/20 00:00:48;;;;;;;17.80;9.55;;;;;;;16.24;68.87;100541.45;1720721;80;27624;-75
2021/08/20 00:03:14;;;;;;;12.30;9.40;;;;;;;16.26;68.92;100542.22;1724521;80;25915;-76
2021/08/20 00:05:40;;;;;;;17.35;9.18;;;;;;;16.28;68.97;100540.76;1722150;80;25741;-76
2021/08/20 00:08:08;;;;;;;11.45;8.83;;;;;;;16.29;69.03;100539.79;1725402;80;26612;-76
2021/08/20 00:10:34;;;;;;;12.30;9.13;;;;;;;16.30;69.07;100526.64;1734149;80;26204;-76
2021/08/20 00:13:00;;;;;;;17.02;9.55;;;;;;;16.31;69.06;100537.36;1727398;80;27572;-75
2021/08/20 00:15:26;;;;;;;15.85;9.35;;;;;;;16.30;69.15;100536.98;1723557;80;25924;-75
2021/08/20 00:17:52;;;;;;;14.90;9.43;;;;;;;16.32;69.21;100541.80;1729033;80;25827;-75
2021/08/20 00:20:19;;;;;;;13.50;9.10;;;;;;;16.34;69.22;100533.58;1724942;80;26353;-75
2021/08/20 00:22:48;;;;;;;13.55;9.28;;;;;;;16.34;69.27;100529.52;1717629;80;25782;-76
2021/08/20 00:25:14;;;;;;;11.50;8.85;;;;;;;16.34;69.37;100533.09;1722070;80;27517;-75
2021/08/20 00:27:41;;;;;;;17.00;9.60;;;;;;;16.36;69.51;100528.44;1721802;80;26016;-76
2021/08/20 00:30:11;;;;;;;17.37;10.63;;;;;;;16.39;69.60;100527.36;1723764;80;25784;-75
2021/08/20 00:32:38;;;;;;;18.50;8.73;;;;;;;16.42;69.68;100520.39;1722654;80;26384;-75
2021/08/20 00:35:08;;;;;;;17.60;10.03;;;;;;;16.45;69.70;100522.39;1720884;80;25789;-75
2021/08/20 00:37:35;;;;;;;12.07;9.10;;;;;;;16.49;69.76;100518.98;1726181;80;26908;-75
2021/08/20 00:40:06;;;;;;;17.32;9.25;;;;;;;16.54;69.83;100519.05;1721977;80;25878;-75
2021/08/20 00:42:32;;;;;;;15.08;9.98;;;;;;;16.59;69.94;100520.56;1721105;80;26352;-76
2021/08/20 00:44:59;;;;;;;18.42;9.18;;;;;;;16.63;69.91;100519.38;1725226;80;25816;-76
2021/08/20 00:47:27;;;;;;;9.43;8.43;;;;;;;16.65;70.00;100529.15;1718610;80;25809;-75
2021/08/20 00:49:53;;;;;;;13.03;8.70;;;;;;;16.66;70.00;100530.02;1732544;80;29601;-75
2021/08/20 00:52:20;;;;;;;17.95;9.90;;;;;;;16.66;69.96;100530.88;1735508;80;25743;-75
2021/08/20 00:54:46;;;;;;;16.70;9.55;;;;;;;16.62;70.07;100527.98;1725324;80;25740;-75
2021/08/20 00:57:17;;;;;;;13.48;9.53;;;;;;;16.60;70.07;100530.41;1721264;80;27230;-75
2021/08/20 00:59:46;;;;;;;11.75;8.70;;;;;;;16.55;70.13;100528.03;1729616;80;25857;-75
2021/08/20 01:02:12;;;;;;;20.45;10.32;;;;;;;16.55;70.21;100529.38;1726910;80;27542;-75
2021/08/20 01:04:41;;;;;;;14.18;9.18;;;;;;;16.56;70.22;100531.98;1725036;80;25982;-75
2021/08/20 01:07:09;;;;;;;14.30;8.58;;;;;;;16.56;70.23;100531.98;1726520;80;26550;-75
2021/08/20 01:09:37;;;;;;;14.35;9.05;;;;;;;16.55;70.27;100534.80;1723990;80;26455;-74
2021/08/20 01:12:08;;;;;;;13.35;9.23;;;;;;;16.55;70.29;100534.31;1734555;80;25886;-75
2021/08/20 01:14:38;;;;;;;13.68;8.63;;;;;;;16.58;70.34;100529.66;1721636;80;27548;-75
2021/08/20 01:17:09;;;;;;;11.80;8.78;;;;;;;16.59;70.40;100542.21;1734981;80;25787;-75
2021/08/20 01:19:37;;;;;;;10.43;8.25;;;;;;;16.59;70.38;100543.08;1723377;80;25836;-75
2021/08/20 01:22:07;;;;;;;13.08;8.25;;;;;;;16.60;70.38;100533.12;1721794;80;25794;-75
2021/08/20 01:24:34;;;;;;;10.98;8.18;;;;;;;16.60;70.44;100532.63;1716267;80;25347;-75
2021/08/20 01:27:00;;;;;;;15.10;8.45;;;;;;;16.61;70.46;100533.50;1723113;80;27459;-75
2021/08/20 01:29:26;;;;;;;12.35;8.38;;;;;;;16.61;70.53;100528.95;1718978;80;26605;-75
2021/08/20 01:31:52;;;;;;;13.05;8.45;;;;;;;16.61;70.58;100530.30;1724130;80;25865;-75
2021/08/20 01:34:20;;;;;;;13.55;8.10;;;;;;;16.63;70.54;100538.31;1725744;80;26337;-76
2021/08/20 01:36:46;;;;;;;10.35;7.90;;;;;;;16.64;70.61;100538.70;1733610;80;26587;-75
2021/08/20 01:39:16;;;;;;;11.40;8.10;;;;;;;16.63;70.60;100535.13;1733484;80;27598;-75
2021/08/20 01:41:42;;;;;;;13.40;8.13;;;;;;;16.65;70.68;100538.63;1729901;80;25979;-76
2021/08/20 01:44:08;;;;;;;15.43;8.45;;;;;;;16.66;70.74;100537.64;1726772;80;25806;-76
2021/08/20 01:46:34;;;;;;;12.73;8.70;;;;;;;16.66;70.77;100539.48;1717770;80;26421;-76
2021/08/20 01:49:03;;;;;;;12.15;8.73;;;;;;;16.67;70.81;100543.44;1721770;80;25763;-76
2021/08/20 01:51:32;;;;;;;11.40;8.73;;;;;;;16.69;70.82;100541.98;1734400;80;27435;-76
2021/08/20 01:54:02;;;;;;;11.35;8.33;;;;;;;16.70;70.85;100546.42;1724347;80;25719;-76
2021/08/20 01:56:34;;;;;;;14.07;8.30;;;;;;;16.70;70.85;100547.28;1718289;80;26350;-76
2021/08/20 01:59:01;;;;;;;10.68;8.33;;;;;;;16.71;70.91;100543.61;1712538;81;25743;-75
2021/08/20 02:01:31;;;;;;;10.90;8.15;;;;;;;16.72;70.90;100543.98;1710149;81;25744;-76
2021/08/20 02:03:58;;;;;;;11.40;8.45;;;;;;;16.73;70.92;100542.14;1710847;81;27462;-75
2021/08/20 02:06:27;;;;;;;10.38;7.40;;;;;;;16.74;70.96;100535.75;1705376;81;25783;-76
2021/08/20 02:08:54;;;;;;;11.03;7.78;;;;;;;16.76;70.99;100543.28;1705073;81;26095;-76
2021/08/20 02:11:20;;;;;;;11.22;8.25;;;;;;;16.77;70.97;100540.95;1720202;81;25872;-76
2021/08/20 02:13:46;;;;;;;12.05;7.67;;;;;;;16.75;71.01;100537.00;1704499;81;25832;-76
2021/08/20 02:16:13;;;;;;;9.48;7.78;;;;;;;16.76;71.01;100537.86;1717823;81;27567;-75
2021/08/20 02:18:40;;;;;;;12.28;8.20;;;;;;;16.75;71.03;100534.78;1709305;81;25772;-75
2021/08/20 02:21:06;;;;;;;12.15;7.87;;;;;;;16.74;71.08;100536.63;1714959;81;25986;-75
2021/08/20 02:23:34;;;;;;;11.00;7.97;;;;;;;16.76;71.18;100542.79;1702764;81;26425;-76
2021/08/20 02:26:00;;;;;;;13.50;7.95;;;;;;;16.78;71.24;100538.63;1708666;81;25738;-76
2021/08/20 02:28:28;;;;;;;9.40;7.25;;;;;;;16.78;71.22;100537.27;1710201;81;28364;-75
2021/08/20 02:30:54;;;;;;;9.78;7.67;;;;;;;16.79;71.22;100538.52;1704279;81;26569;-76
2021/08/20 02:33:20;;;;;;;15.43;8.00;;;;;;;16.80;71.28;100536.19;1706296;81;25848;-75
2021/08/20 02:35:48;;;;;;;10.50;7.33;;;;;;;16.81;71.32;100537.92;1713326;81;25895;-76
2021/08/20 02:38:14;;;;;;;11.70;7.08;;;;;;;16.81;71.31;100536.56;1708161;81;25765;-76
2021/08/20 02:40:40;;;;;;;11.03;7.75;;;;;;;16.81;71.36;100532.50;1704125;81;27455;-76
2021/08/20 02:43:06;;;;;;;10.78;7.55;;;;;;;16.83;71.39;100536.45;1711322;81;26600;-76
2021/08/20 02:45:33;;;;;;;11.12;6.87;;;;;;;16.84;71.41;100530.94;1713763;81;26090;-76
2021/08/20 02:48:00;;;;;;;7.62;6.65;;;;;;;16.85;71.39;100529.09;1708973;81;25937;-75
2021/08/20 02:50:26;;;;;;;12.65;7.20;;;;;;;16.86;71.39;100532.18;1718845;81;25768;-75
2021/08/20 02:52:55;;;;;;;11.97;6.83;;;;;;;16.86;71.44;100530.34;1702663;81;26793;-75
2021/08/20 02:55:21;;;;;;;8.73;6.87;;;;;;;16.86;71.47;100529.47;1713483;81;25750;-75
2021/08/20 02:57:49;;;;;;;11.50;8.08;;;;;;;16.85;71.47;100534.02;1708477;81;25947;-75
2021/08/20 03:00:16;;;;;;;10.38;7.62;;;;;;;16.85;71.54;100530.45;1723195;80;25871;-75
2021/08/20 03:02:42;;;;;;;11.68;7.05;;;;;;;16.85;71.49;100535.86;1729668;80;25905;-75
2021/08/20 03:05:09;;;;;;;12.20;7.70;;;;;;;16.84;71.53;100539.05;1726907;80;28400;-75
2021/08/20 03:07:39;;;;;;;12.63;7.10;;;;;;;16.83;71.55;100530.55;1727033;80;25908;-76
2021/08/20 03:10:06;;;;;;;12.03;7.17;;;;;;;16.83;71.60;100540.03;1720189;80;25780;-75
2021/08/20 03:12:39;;;;;;;9.45;7.53;;;;;;;16.84;71.55;100544.95;1733132;80;25743;-76
2021/08/20 03:15:08;;;;;;;11.63;6.90;;;;;;;16.84;71.66;100547.66;1735569;80;25819;-75
2021/08/20 03:17:34;;;;;;;10.05;7.15;;;;;;;16.83;71.64;100541.87;1726187;80;28122;-75
2021/08/20 03:20:00;;;;;;;12.13;8.08;;;;;;;16.83;71.71;100552.70;1725004;80;25730;-75
2021/08/20 03:22:26;;;;;;;15.15;7.45;;;;;;;16.83;71.71;100556.27;1726792;80;25743;-74
2021/08/20 03:24:55;;;;;;;11.85;7.42;;;;;;;16.84;71.71;100558.49;1719926;80;25850;-74
2021/08/20 03:27:22;;;;;;;13.70;7.78;;;;;;;16.83;71.74;100559.47;1726976;80;25708;-75
2021/08/20 03:29:49;;;;;;;13.80;8.30;;;;;;;16.82;71.78;100559.95;1722363;80;25729;-75
2021/08/20 03:32:17;;;;;;;13.32;8.20;;;;;;;16.83;71.79;100556.27;1724536;80;25815;-75
2021/08/20 03:34:43;;;;;;;9.75;6.80;;;;;;;16.82;71.82;100553.67;1734482;80;25479;-75
2021/08/20 03:37:11;;;;;;;11.35;8.00;;;;;;;16.83;71.81;100560.33;1727913;80;26480;-75
2021/08/20 03:39:37;;;;;;;9.80;7.28;;;;;;;16.84;71.86;100561.20;1720396;80;25810;-75
2021/08/20 03:42:04;;;;;;;14.23;7.87;;;;;;;16.84;71.89;100565.27;1730940;80;29769;-76
2021/08/20 03:44:30;;;;;;;8.43;6.50;;;;;;;16.84;71.89;100565.27;1718654;80;25803;-75
2021/08/20 03:46:56;;;;;;;14.53;7.78;;;;;;;16.83;71.89;100568.45;1731273;80;25692;-75
2021/08/20 03:49:25;;;;;;;9.00;7.05;;;;;;;16.83;71.94;100568.94;1726624;80;25866;-75
2021/08/20 03:51:50;;;;;;;12.33;7.28;;;;;;;16.84;71.92;100565.27;1731151;80;26075;-75
2021/08/20 03:54:18;;;;;;;10.60;6.80;;;;;;;16.84;71.94;100561.20;1731697;80;29794;-75
2021/08/20 03:56:44;;;;;;;11.22;7.47;;;;;;;16.83;71.97;100557.62;1718423;80;26502;-75
2021/08/20 03:59:10;;;;;;;11.03;7.10;;;;;;;16.83;71.99;100561.69;1730002;80;25869;-75
2021/08/20 04:01:36;;;;;;;9.30;6.37;;;;;;;16.84;71.99;100560.71;1714447;80;28095;-75
2021/08/20 04:04:04;;;;;;;14.78;7.65;;;;;;;16.84;72.02;100554.44;1712859;81;26296;-75
2021/08/20 04:06:31;;;;;;;10.63;7.25;;;;;;;16.85;72.00;100566.50;1720620;80;27771;-75
2021/08/20 04:09:00;;;;;;;12.28;7.42;;;;;;;16.86;72.08;100557.89;1720428;80;25902;-75
2021/08/20 04:11:26;;;;;;;11.05;7.60;;;;;;;16.87;72.04;100562.34;1724245;80;25803;-75
2021/08/20 04:13:52;;;;;;;8.78;6.90;;;;;;;16.89;72.07;100571.22;1720164;80;28082;-75
2021/08/20 04:16:20;;;;;;;8.88;7.03;;;;;;;16.91;72.06;100569.27;1724973;80;25865;-75
2021/08/20 04:18:46;;;;;;;10.70;7.75;;;;;;;16.93;72.07;100570.02;1713069;80;28289;-75
2021/08/20 04:21:14;;;;;;;8.83;6.95;;;;;;;16.95;72.07;100575.33;1714917;80;26527;-75
2021/08/20 04:23:42;;;;;;;11.50;7.33;;;;;;;16.96;72.07;100569.80;1713903;80;25736;-75
2021/08/20 04:26:09;;;;;;;10.55;7.00;;;;;;;16.97;72.10;100566.13;1725338;80;26440;-75
2021/08/20 04:28:35;;;;;;;9.30;7.22;;;;;;;16.98;72.06;100570.56;1723243;80;26224;-75
2021/08/20 04:31:03;;;;;;;12.65;7.60;;;;;;;16.98;72.13;100574.62;1712257;80;28113;-75
2021/08/20 04:33:31;;;;;;;10.65;7.58;;;;;;;17.00;72.08;100575.87;1709695;80;25827;-75
2021/08/20 04:35:58;;;;;;;15.93;8.45;;;;;;;17.00;72.13;100578.09;1718339;80;26408;-75
2021/08/20 04:38:25;;;;;;;11.35;7.03;;;;;;;17.01;72.16;100574.41;1726673;80;28008;-74
2021/08/20 04:40:51;;;;;;;11.18;7.47;;;;;;;17.04;72.17;100576.03;1717427;80;25750;-74
2021/08/20 04:43:19;;;;;;;11.93;7.67;;;;;;;17.06;72.17;100576.79;1725266;80;27464;-75
2021/08/20 04:45:48;;;;;;;10.63;7.67;;;;;;;17.08;72.19;100581.12;1725183;81;25739;-75
2021/08/20 04:48:16;;;;;;;11.43;6.95;;;;;;;17.10;72.18;100581.88;1727093;80;26420;-75
2021/08/20 04:50:42;;;;;;;8.08;7.22;;;;;;;17.12;72.16;100573.16;1725623;81;25728;-75
2021/08/20 04:53:08;;;;;;;12.75;6.83;;;;;;;17.13;72.21;100577.59;1722163;80;26432;-75
2021/08/20 04:55:34;;;;;;;11.68;7.50;;;;;;;17.15;72.14;100574.29;1722324;80;27549;-75
2021/08/20 04:58:00;;;;;;;7.90;6.95;;;;;;;17.18;72.19;100580.84;1707319;82;27266;-75
2021/08/20 05:00:28;;;;;;;14.38;7.72;;;;;;;17.24;72.20;100583.59;1717103;81;25768;-76
2021/08/20 05:02:54;;;;;;;8.70;7.08;;;;;;;17.27;72.19;100579.31;1722922;81;26502;-74
2021/08/20 05:05:20;;;;;;;13.55;6.80;;;;;;;17.30;72.12;100583.64;1709919;81;25704;-73
2021/08/20 05:07:46;;;;;;;12.50;7.50;;;;;;;17.31;72.14;100582.67;1705342;81;27400;-77
2021/08/20 05:10:14;;;;;;;12.60;7.10;;;;;;;17.33;72.13;100587.48;1724493;81;25997;-75
2021/08/20 05:12:42;;;;;;;10.28;6.17;;;;;;;17.35;72.12;100589.11;1716205;81;25729;-74
2021/08/20 05:15:10;;;;;;;9.95;7.70;;;;;;;17.36;72.09;100594.91;1718036;81;25822;-75
2021/08/20 05:17:36;;;;;;;11.93;6.80;;;;;;;17.39;72.10;100591.97;1712859;81;25733;-75
2021/08/20 05:20:05;;;;;;;14.43;7.45;;;;;;;17.41;72.09;100585.09;1705195;81;27464;-76
2021/08/20 05:22:44;;;;;;;18.02;6.83;;;;;;;17.43;72.09;100597.55;1704701;81;26535;-76
2021/08/20 05:25:10;;;;;;;10.35;7.55;;;;;;;17.45;72.14;100593.37;1703740;81;25767;-73
2021/08/20 05:27:37;;;;;;;11.57;7.58;;;;;;;17.50;72.11;100598.83;1719975;81;26309;-74
2021/08/20 05:30:07;;;;;;;9.43;6.35;;;;;;;17.55;72.06;100594.92;1715385;81;25795;-76
2021/08/20 05:32:33;;;;;;;10.98;7.67;;;;;;;17.57;72.06;100596.55;1710019;81;29547;-74
2021/08/20 05:35:00;;;;;;;13.95;7.37;;;;;;;17.62;72.04;100600.27;1718559;81;25894;-76
2021/08/20 05:37:26;;;;;;;14.83;7.42;;;;;;;17.65;71.98;100600.05;1712851;81;25755;-75
2021/08/20 05:39:52;;;;;;;11.75;7.42;;;;;;;17.69;71.96;100601.09;1713620;80;26456;-76
2021/08/20 05:42:19;;;;;;;15.00;7.37;;;;;;;17.70;71.96;100601.47;1719273;81;26468;-75
2021/08/20 05:44:45;;;;;;;14.03;6.90;;;;;;;17.70;71.98;100604.19;1709680;81;25901;-74
2021/08/20 05:47:13;;;;;;;15.00;7.17;;;;;;;17.73;72.00;100604.45;1704861;81;25827;-75
2021/08/20 05:49:40;;;;;;;11.75;7.53;;;;;;;17.76;71.95;100600.16;1718684;81;25731;-74
2021/08/20 05:52:07;;;;;;;12.95;8.23;;;;;;;17.79;71.94;100602.16;1713660;81;25866;-74
2021/08/20 05:54:36;;;;;;;20.37;7.35;;;;;;;17.81;71.92;100603.39;1719275;81;25889;-70
2021/08/20 05:57:03;;;;;;;13.10;7.90;;;;;;;17.83;71.93;100606.37;1715620;81;28863;-71
2021/08/20 05:59:29;;;;;;;11.65;7.90;;;;;;;17.88;71.87;100603.31;1712783;80;25820;-70
2021/08/20 06:02:00;;;;;;;22.05;7.20;;;;;;;17.93;71.87;100603.84;1722078;80;26063;-72
2021/08/20 06:04:27;;;;;;;17.65;8.13;;;;;;;18.00;71.83;100602.40;1731147;80;25786;-72
2021/08/20 06:06:55;;;;;;;17.80;8.30;;;;;;;18.04;71.79;100594.41;1725509;80;26403;-72
2021/08/20 06:09:21;;;;;;;11.63;8.18;;;;;;;18.07;71.74;100602.80;1738201;80;27493;-70
2021/08/20 06:11:52;;;;;;;16.25;8.53;;;;;;;18.07;71.70;100596.89;1721398;80;25697;-71
2021/08/20 06:14:18;;;;;;;15.18;8.58;;;;;;;18.11;71.72;100602.45;1718250;80;26519;-71
2021/08/20 06:16:44;;;;;;;18.77;8.53;;;;;;;18.16;71.67;100601.62;1718534;80;26114;-69
2021/08/20 06:19:12;;;;;;;15.55;8.05;;;;;;;18.16;71.56;100594.84;1727491;80;25827;-70
2021/08/20 06:21:39;;;;;;;13.18;8.70;;;;;;;18.20;71.60;100596.83;1731332;80;27542;-68
2021/08/20 06:24:09;;;;;;;15.00;8.48;;;;;;;18.23;71.53;100603.34;1729342;80;25973;-70
2021/08/20 06:26:36;;;;;;;;;;;;;;;18.29;71.45;100608.80;1731383;80;25830;-70
2021/08/20 06:29:02;;;;;;;21.33;9.28;;;;;;;18.32;71.48;100602.64;1731824;80;26453;-70
2021/08/20 06:31:28;;;;;;;16.57;9.00;;;;;;;18.36;71.43;100612.78;1732311;80;25681;-70
2021/08/20 06:33:58;;;;;;;21.65;8.43;;;;;;;18.37;71.35;100609.95;1722129;80;25772;-72
2021/08/20 06:36:23;;;;;;;18.82;8.30;;;;;;;18.43;71.34;100609.97;1727586;80;26489;-70
2021/08/20 06:38:49;;;;;;;18.90;8.60;;;;;;;18.52;71.27;100616.54;1726316;80;26074;-70
2021/08/20 06:41:19;;;;;;;20.40;8.93;;;;;;;18.55;71.21;100620.37;1726610;80;26069;-70
2021/08/20 06:43:44;;;;;;;24.05;8.68;;;;;;;18.64;71.19;100620.56;1724337;80;25838;-70
2021/08/20 06:46:10;;;;;;;16.82;8.90;;;;;;;18.72;71.04;100619.48;1735262;80;29721;-71
2021/08/20 06:48:36;;;;;;;19.35;8.48;;;;;;;18.79;71.03;100629.38;1725420;80;25815;-70
2021/08/20 06:51:04;;;;;;;26.80;8.93;;;;;;;18.86;70.84;100631.13;1728948;80;25812;-70
2021/08/20 06:53:30;;;;;;;15.68;8.58;;;;;;;18.87;70.76;100626.93;1726774;80;26439;-70
2021/08/20 06:55:56;;;;;;;29.42;9.95;;;;;;;18.93;70.76;100625.09;1729630;80;26153;-71
2021/08/20 06:58:22;;;;;;;12.33;8.38;;;;;;;18.97;70.60;100630.66;1726025;80;27385;-70
2021/08/20 07:00:48;;;;;;;20.40;10.05;;;;;;;19.00;70.53;100630.41;1733820;80;25865;-71
2021/08/20 07:03:18;;;;;;;13.08;8.08;;;;;;;19.00;70.41;100630.91;1724676;80;25834;-69
2021/08/20 07:05:44;;;;;;;13.05;9.20;;;;;;;19.02;70.35;100634.37;1735890;80;26018;-70
2021/08/20 07:08:10;;;;;;;16.80;9.13;;;;;;;19.03;70.25;100641.53;1721700;80;26566;-69
2021/08/20 07:10:37;;;;;;;12.13;7.70;;;;;;;19.05;70.21;100628.20;1723935;80;27485;-70
2021/08/20 07:13:03;;;;;;;14.55;9.15;;;;;;;19.05;70.10;100631.41;1718027;80;25724;-70
2021/08/20 07:15:29;;;;;;;15.15;9.70;;;;;;;19.07;70.02;100630.30;1721510;80;25903;-72
2021/08/20 07:17:58;;;;;;;16.87;9.50;;;;;;;19.06;69.88;100629.06;1737260;80;26660;-72
2021/08/20 07:20:25;;;;;;;16.77;8.73;;;;;;;19.09;69.94;100628.83;1724613;80;25861;-73
2021/08/20 07:22:53;;;;;;;15.68;9.13;;;;;;;19.18;69.92;100635.38;1723977;80;27475;-73
2021/08/20 07:25:19;;;;;;;15.75;9.28;;;;;;;19.23;69.78;100638.11;1721531;80;25803;-73
2021/08/20 07:27:46;;;;;;;18.87;10.50;;;;;;;19.28;69.77;100633.66;1724490;80;25773;-73
2021/08/20 07:30:15;;;;;;;20.00;10.68;;;;;;;19.32;69.65;100636.02;1729086;80;25855;-73
2021/08/20 07:32:44;;;;;;;21.73;10.43;;;;;;;19.33;69.54;100630.95;1723555;80;26084;-73
2021/08/20 07:35:15;;;;;;;14.68;9.25;;;;;;;19.30;69.34;100628.97;1722799;80;27384;-72
2021/08/20 07:37:44;;;;;;;21.70;10.20;;;;;;;19.31;69.37;100623.91;1728552;80;25697;-73
2021/08/20 07:40:10;;;;;;;15.03;9.73;;;;;;;19.32;69.36;100622.92;1729575;80;25739;-73
2021/08/20 07:42:37;;;;;;;16.12;10.08;;;;;;;19.46;69.35;100629.47;1715724;80;26405;-73
2021/08/20 07:45:05;;;;;;;17.95;10.75;;;;;;;19.53;69.17;100638.03;1733327;80;25694;-73
2021/08/20 07:47:32;;;;;;;18.85;10.75;;;;;;;19.59;69.03;100631.60;1720096;80;27399;-73
2021/08/20 07:50:00;;;;;;;14.33;9.78;;;;;;;19.61;69.01;100632.84;1726590;80;25729;-73
2021/08/20 07:52:27;;;;;;;18.35;11.22;;;;;;;19.68;68.94;100634.06;1723335;80;25878;-73
2021/08/20 07:54:53;;;;;;;15.38;11.35;;;;;;;19.73;68.81;100637.28;1722190;80;26075;-73
2021/08/20 07:57:20;;;;;;;15.90;11.93;;;;;;;19.74;68.73;100638.52;1722146;80;25876;-73
2021/08/20 07:59:48;;;;;;;14.20;10.68;;;;;;;19.78;68.66;100639.12;1722715;80;27452;-73
2021/08/20 08:02:14;;;;;;;15.20;10.90;;;;;;;19.84;68.60;100643.20;1715311;81;26641;-70
2021/08/20 08:04:42;;;;;;;16.15;10.05;;;;;;;19.91;68.52;100641.20;1712766;81;25730;-69
2021/08/20 08:07:09;;;;;;;20.05;11.43;;;;;;;19.99;67.99;100637.86;1713555;81;25736;-69
2021/08/20 08:09:37;;;;;;;18.27;10.63;;;;;;;19.94;68.15;100649.12;1716207;81;25794;-69
2021/08/20 08:12:04;;;;;;;16.77;9.95;;;;;;;19.94;68.15;100649.12;1715877;81;27545;-68
2021/08/20 08:14:31;;;;;;;14.23;10.53;;;;;;;19.88;67.92;100641.46;1712735;81;26375;-68
2021/08/20 08:16:59;;;;;;;19.48;9.95;;;;;;;19.87;68.03;100637.02;1708475;81;25763;-68
2021/08/20 08:19:26;;;;;;;17.40;10.70;;;;;;;19.90;67.99;100642.20;1713095;81;25730;-69
2021/08/20 08:21:53;;;;;;;24.00;10.90;;;;;;;19.90;67.82;100645.42;1715369;81;26502;-69
2021/08/20 08:24:21;;;;;;;14.70;10.10;;;;;;;19.83;67.69;100641.47;1711133;81;27471;-73
2021/08/20 08:26:48;;;;;;;12.85;8.90;;;;;;;19.74;67.67;100641.23;1708020;81;25834;-73
2021/08/20 08:29:14;;;;;;;19.57;11.10;;;;;;;19.72;67.70;100644.57;1705984;81;26363;-73
2021/08/20 08:31:41;;;;;;;13.60;9.93;;;;;;;19.74;67.64;100648.52;1710614;81;26588;-71
2021/08/20 08:34:08;;;;;;;20.55;10.20;;;;;;;19.73;67.52;100644.08;1717289;81;25787;-70
2021/08/20 08:36:35;;;;;;;14.13;10.55;;;;;;;19.55;67.56;100608.86;1661337;84;29723;-70
2021/08/20 08:39:03;;;;;;;18.02;10.82;;;;;;;19.79;67.65;100643.58;1672553;83;25804;-68
2021/08/20 08:41:33;;;;;;;16.10;10.85;;;;;;;19.93;67.61;100643.80;1681589;83;25843;-70
2021/08/20 08:44:04;;;;;;;21.82;11.00;;;;;;;19.98;67.32;100653.81;1664398;83;25815;-71
2021/08/20 08:46:37;;;;;;;17.10;11.08;;;;;;;19.96;67.23;100658.52;1672781;83;25736;-71
2021/08/20 08:49:07;;;;;;;15.30;10.18;;;;;;;19.92;67.04;100648.88;1677950;83;28374;-69
2021/08/20 08:51:37;;;;;;;14.47;10.28;;;;;;;20.01;67.13;100651.70;1674450;83;25827;-68
2021/08/20 08:54:05;;;;;;;21.90;10.58;;;;;;;20.08;66.91;100650.70;1668343;83;26355;-68
2021/08/20 08:56:31;;;;;;;21.27;10.20;;;;;;;20.14;66.99;100646.11;1671292;83;25912;-69
2021/08/20 08:59:00;;;;;;;15.10;10.23;;;;;;;20.35;67.13;100644.31;1672807;83;26616;-68
2021/08/20 09:01:32;;;;;;;18.02;11.00;;;;;;;20.55;66.83;100640.44;1675995;82;27485;-69
2021/08/20 09:04:24;;;;;;;16.00;9.93;;;;;;;20.67;66.78;100646.20;1681525;82;25729;-73
2021/08/20 09:06:57;;;;;;;16.48;10.05;;;;;;;20.84;66.74;100649.67;1685515;82;25651;-73
2021/08/20 09:09:28;;;;;;;24.20;10.85;;;;;;;20.99;66.49;100644.25;1673410;82;25820;-69
2021/08/20 09:11:58;;;;;;;;;;;;;;;21.03;66.22;100655.76;1682316;82;25882;-72
2021/08/20 09:14:35;;;;;;;14.78;10.82;;;;;;;20.97;65.83;100643.53;1677302;82;27368;-71
2021/08/20 09:17:04;;;;;;;16.73;10.40;;;;;;;20.91;65.87;100652.23;1661861;84;26560;-71
2021/08/20 09:19:32;;;;;;;15.60;11.18;;;;;;;20.78;65.45;100661.63;1729177;80;25808;-72
2021/08/20 09:22:09;;;;;;;15.10;10.60;;;;;;;20.57;65.42;100657.51;1719321;80;25881;-72
2021/08/20 09:24:41;;;;;;;20.90;11.83;;;;;;;20.50;65.42;100651.72;1714943;80;25757;-73
2021/08/20 09:27:24;;;;;;;17.65;10.63;;;;;;;20.47;65.39;100655.20;1726833;80;28295;-74
2021/08/20 09:30:14;;;;;;;17.95;10.70;;;;;;;20.44;65.38;100655.45;1725006;80;25731;-74
2021/08/20 09:32:47;;;;;;;14.98;9.58;;;;;;;20.43;65.29;100660.53;1716413;80;25718;-74
2021/08/20 09:35:14;;;;;;;17.82;12.33;;;;;;;20.39;65.30;100666.73;1715684;80;26400;-74
2021/08/20 09:37:40;;;;;;;18.73;12.43;;;;;;;20.33;65.09;100666.72;1721240;80;25734;-73
2021/08/20 09:40:23;;;;;;;20.35;13.32;;;;;;;20.18;65.06;100661.19;1719957;80;27427;-71
2021/08/20 09:42:40;;;;;;;20.88;12.53;;;;;;;20.11;65.12;100668.13;1709020;80;25955;-71
2021/08/20 09:45:19;;;;;;;26.33;13.05;;;;;;;20.03;65.16;100674.21;1719521;80;25841;-74
2021/08/20 09:47:54;;;;;;;18.12;11.93;;;;;;;19.99;65.26;100667.29;1720114;80;26236;-74
2021/08/20 09:50:42;;;;;;;21.68;13.03;;;;;;;19.97;65.23;100657.52;1726680;80;25755;-76
2021/08/20 09:53:14;;;;;;;22.27;13.22;;;;;;;20.01;65.36;100665.80;1718837;80;27356;-73
2021/08/20 09:55:43;;;;;;;21.30;12.45;;;;;;;20.13;65.23;100658.48;1712726;80;25830;-74
2021/08/20 09:58:13;;;;;;;25.55;11.85;;;;;;;20.16;65.29;100631.88;1714793;80;25733;-71
2021/08/20 10:00:42;;;;;;;18.82;11.12;;;;;;;20.16;65.29;100631.88;1719327;80;25884;-73
2021/08/20 10:03:12;;;;;;;21.52;11.75;;;;;;;20.51;65.52;100663.47;1717131;81;25836;-72
2021/08/20 10:05:40;;;;;;;25.57;11.70;;;;;;;20.66;65.08;100653.50;1716698;81;27494;-69
2021/08/20 10:08:10;;;;;;;19.42;10.45;;;;;;;20.79;65.17;100655.18;1716937;81;25756;-71
2021/08/20 10:10:42;;;;;;;15.80;10.30;;;;;;;20.83;64.93;100644.35;1706351;81;33033;-72
2021/08/20 10:13:14;;;;;;;23.00;11.45;;;;;;;20.99;64.44;100658.38;1662852;84;25883;-73
2021/08/20 10:15:42;;;;;;;16.55;10.28;;;;;;;21.02;64.55;100655.39;1711720;81;25769;-72
2021/08/20 10:18:12;;;;;;;15.78;10.53;;;;;;;21.18;64.57;100650.83;1712242;81;27875;-73
2021/08/20 10:20:39;;;;;;;16.93;11.35;;;;;;;21.41;64.48;100644.75;1710413;81;26092;-71
2021/08/20 10:23:15;;;;;;;17.37;11.88;;;;;;;21.62;64.18;100649.16;1664968;84;26006;-70
2021/08/20 10:25:42;;;;;;;18.57;10.15;;;;;;;21.80;64.05;100642.55;1673142;83;26195;-71
2021/08/20 10:28:13;;;;;;;29.25;12.00;;;;;;;22.01;63.79;100637.88;1679486;83;26525;-72
2021/08/20 10:30:44;;;;;;;17.70;10.93;;;;;;;22.15;63.30;100635.27;1669816;83;27435;-75
2021/08/20 10:33:10;;;;;;;19.17;10.55;;;;;;;22.14;62.78;100637.64;1672069;83;25820;-74
2021/08/20 10:35:55;;;;;;;18.20;10.32;;;;;;;22.20;62.46;100629.39;1715793;81;25828;-75
2021/08/20 10:38:27;;;;;;;20.40;11.65;;;;;;;22.29;62.10;100628.54;1711900;81;25850;-73
2021/08/20 10:41:18;;;;;;;16.05;11.48;;;;;;;22.20;61.56;100642.54;1711856;81;25823;-74
2021/08/20 10:44:12;;;;;;;19.45;11.03;;;;;;;22.22;61.69;100626.87;1704617;81;27452;-71
2021/08/20 10:46:47;;;;;;;16.50;10.43;;;;;;;22.23;61.53;100626.38;1716334;81;25870;-69
2021/08/20 10:49:19;;;;;;;17.10;10.90;;;;;;;22.38;61.39;100628.19;1712101;82;26453;-69
2021/08/20 10:51:59;;;;;;;17.52;11.28;;;;;;;22.50;61.36;100621.58;1714404;81;27765;-71
2021/08/20 10:54:37;;;;;;;19.13;10.10;;;;;;;22.62;61.14;100628.62;1711924;81;25835;-72
2021/08/20 10:57:30;;;;;;;14.10;9.80;;;;;;;22.67;60.81;100622.23;1707896;81;27394;-73
2021/08/20 10:59:56;;;;;;;13.05;9.30;;;;;;;22.73;60.38;100623.02;1704023;81;25733;-73
2021/08/20 11:02:28;;;;;;;21.30;12.30;;;;;;;22.77;60.23;100624.45;1716498;80;26361;-73
2021/08/20 11:05:01;;;;;;;27.62;11.75;;;;;;;22.87;59.82;100628.07;1726387;80;27878;-71
2021/08/20 11:07:47;;;;;;;21.77;14.33;;;;;;;22.90;59.64;100624.18;1728737;80;25831;-70
2021/08/20 11:10:21;;;;;;;22.70;12.50;;;;;;;22.92;59.36;100627.13;1732126;80;27375;-72
2021/08/20 11:12:58;;;;;;;20.08;13.55;;;;;;;22.97;59.41;100620.72;1728145;80;25694;-72
2021/08/20 11:15:33;;;;;;;18.52;12.80;;;;;;;23.16;58.55;100617.58;1728357;80;25857;-73
2021/08/20 11:18:03;;;;;;;19.37;15.40;;;;;;;23.13;58.94;100612.41;1724989;80;25712;-71
2021/08/20 11:20:47;;;;;;;22.52;12.50;;;;;;;23.27;58.78;100617.41;1724407;80;25830;-72
2021/08/20 11:23:17;;;;;;;15.00;10.90;;;;;;;23.34;58.46;100622.63;1724919;80;27566;-72